createdAt,value
2018-06-30T00:00:09.672Z,0
2018-06-30T00:01:09.656Z,0
2018-06-30T00:02:09.967Z,0
2018-06-30T00:03:10.185Z,0
2018-06-30T00:04:09.899Z,0
2018-06-30T00:05:09.904Z,0
2018-06-30T00:06:10.135Z,0
2018-06-30T00:07:10.131Z,0
2018-06-30T00:08:09.863Z,0
2018-06-30T00:09:09.589Z,0
2018-06-30T00:10:09.564Z,0
2018-06-30T00:11:09.820Z,0
2018-06-30T00:12:09.809Z,0
2018-06-30T00:13:10.067Z,0
2018-06-30T00:14:09.540Z,0
2018-06-30T00:15:09.781Z,0
2018-06-30T00:16:10.035Z,0
2018-06-30T00:17:10.025Z,0
2018-06-30T00:18:10.028Z,0
2018-06-30T00:19:09.219Z,0
2018-06-30T00:20:09.474Z,0
2018-06-30T00:21:09.984Z,0
2018-06-30T00:22:09.706Z,0
2018-06-30T00:23:09.967Z,0
2018-06-30T00:24:09.692Z,0
2018-06-30T00:25:09.940Z,0
2018-06-30T00:26:09.396Z,0
2018-06-30T00:27:09.661Z,0
2018-06-30T00:28:09.121Z,0
2018-06-30T00:29:09.970Z,0
2018-06-30T00:30:09.897Z,0
2018-06-30T00:31:09.658Z,0
2018-06-30T00:32:09.605Z,0
2018-06-30T00:33:10.125Z,0
2018-06-30T00:34:09.574Z,0
2018-06-30T00:35:10.106Z,0
2018-06-30T00:36:09.825Z,0
2018-06-30T00:37:09.832Z,0
2018-06-30T00:38:09.050Z,0
2018-06-30T00:39:09.804Z,0
2018-06-30T00:40:09.775Z,0
2018-06-30T00:41:09.769Z,0
2018-06-30T00:42:09.229Z,0
2018-06-30T00:43:09.484Z,0
2018-06-30T00:44:08.942Z,0
2018-06-30T00:45:09.193Z,0
2018-06-30T00:46:09.985Z,0
2018-06-30T00:47:09.449Z,0
2018-06-30T00:48:09.174Z,0
2018-06-30T00:49:09.815Z,0
2018-06-30T00:50:09.150Z,0
2018-06-30T00:51:09.404Z,0
2018-06-30T00:52:09.125Z,0
2018-06-30T00:53:09.905Z,0
2018-06-30T00:54:09.098Z,0
2018-06-30T00:55:09.351Z,0
2018-06-30T00:56:09.338Z,0
2018-06-30T00:57:09.330Z,0
2018-06-30T00:58:09.325Z,0
2018-06-30T00:59:09.843Z,0
2018-06-30T01:00:09.302Z,0
2018-06-30T01:01:09.033Z,0
2018-06-30T01:02:09.817Z,0
2018-06-30T01:03:09.003Z,0
2018-06-30T01:04:09.530Z,0
2018-06-30T01:05:09.514Z,0
2018-06-30T01:06:09.778Z,0
2018-06-30T01:07:09.803Z,0
2018-06-30T01:08:09.480Z,0
2018-06-30T01:09:09.476Z,0
2018-06-30T01:10:09.463Z,0
2018-06-30T01:11:08.925Z,0
2018-06-30T01:12:09.447Z,0
2018-06-30T01:13:09.426Z,0
2018-06-30T01:14:09.159Z,0
2018-06-30T01:15:09.423Z,0
2018-06-30T01:16:09.123Z,0
2018-06-30T01:17:08.848Z,0
2018-06-30T01:18:08.577Z,0
2018-06-30T01:19:08.823Z,0
2018-06-30T01:20:08.830Z,0
2018-06-30T01:21:09.608Z,0
2018-06-30T01:22:09.059Z,0
2018-06-30T01:23:09.064Z,0
2018-06-30T01:24:09.305Z,0
2018-06-30T01:25:09.295Z,0
2018-06-30T01:26:09.013Z,0
2018-06-30T01:27:09.008Z,0
2018-06-30T01:28:09.574Z,0
2018-06-30T01:29:09.240Z,0
2018-06-30T01:30:09.234Z,0
2018-06-30T01:31:08.959Z,0
2018-06-30T01:32:08.418Z,0
2018-06-30T01:33:08.941Z,0
2018-06-30T01:34:09.129Z,0
2018-06-30T01:35:08.912Z,0
2018-06-30T01:36:09.166Z,0
2018-06-30T01:37:09.156Z,0
2018-06-30T01:38:08.873Z,0
2018-06-30T01:39:08.873Z,0
2018-06-30T01:40:08.588Z,0
2018-06-30T01:41:09.148Z,0
2018-06-30T01:42:08.573Z,0
2018-06-30T01:43:08.578Z,0
2018-06-30T01:44:08.563Z,0
2018-06-30T01:45:09.327Z,0
2018-06-30T01:46:09.057Z,0
2018-06-30T01:47:08.243Z,0
2018-06-30T01:48:09.020Z,0
2018-06-30T01:49:08.491Z,0
2018-06-30T01:50:08.794Z,0
2018-06-30T01:51:09.000Z,0
2018-06-30T01:52:08.465Z,0
2018-06-30T01:53:08.716Z,0
2018-06-30T01:54:08.435Z,0
2018-06-30T01:55:08.688Z,0
2018-06-30T01:56:08.406Z,0
2018-06-30T01:57:08.667Z,0
2018-06-30T01:58:09.186Z,0
2018-06-30T01:59:08.959Z,0
2018-06-30T02:00:08.642Z,0
2018-06-30T02:01:09.155Z,0
2018-06-30T02:02:08.601Z,0
2018-06-30T02:03:08.585Z,0
2018-06-30T02:04:08.579Z,0
2018-06-30T02:05:08.572Z,0
2018-06-30T02:06:08.300Z,0
2018-06-30T02:07:09.076Z,0
2018-06-30T02:08:08.812Z,0
2018-06-30T02:09:09.058Z,0
2018-06-30T02:10:08.789Z,0
2018-06-30T02:11:08.504Z,0
2018-06-30T02:12:08.226Z,0
2018-06-30T02:13:08.742Z,0
2018-06-30T02:14:07.960Z,0
2018-06-30T02:15:08.770Z,0
2018-06-30T02:16:08.444Z,0
2018-06-30T02:17:08.961Z,0
2018-06-30T02:18:08.419Z,0
2018-06-30T02:19:07.877Z,0
2018-06-30T02:20:07.875Z,0
2018-06-30T02:21:08.392Z,0
2018-06-30T02:22:08.372Z,0
2018-06-30T02:23:08.421Z,0
2018-06-30T02:24:07.912Z,0
2018-06-30T02:25:08.341Z,0
2018-06-30T02:26:08.062Z,0
2018-06-30T02:27:08.598Z,0
2018-06-30T02:28:08.354Z,0
2018-06-30T02:29:08.297Z,0
2018-06-30T02:30:08.819Z,0
2018-06-30T02:31:08.272Z,0
2018-06-30T02:32:08.799Z,0
2018-06-30T02:33:08.251Z,0
2018-06-30T02:34:08.515Z,0
2018-06-30T02:35:07.963Z,0
2018-06-30T02:36:08.229Z,0
2018-06-30T02:37:08.198Z,0
2018-06-30T02:38:08.189Z,0
2018-06-30T02:39:07.753Z,0
2018-06-30T02:40:08.724Z,0
2018-06-30T02:41:07.901Z,0
2018-06-30T02:42:08.153Z,0
2018-06-30T02:43:08.200Z,0
2018-06-30T02:44:08.415Z,0
2018-06-30T02:45:08.702Z,0
2018-06-30T02:46:08.330Z,0
2018-06-30T02:47:08.122Z,0
2018-06-30T02:48:08.608Z,0
2018-06-30T02:49:08.323Z,0
2018-06-30T02:50:08.574Z,0
2018-06-30T02:51:08.302Z,0
2018-06-30T02:52:08.310Z,0
2018-06-30T02:53:08.020Z,0
2018-06-30T02:54:08.011Z,0
2018-06-30T02:55:08.262Z,0
2018-06-30T02:56:08.255Z,0
2018-06-30T02:57:07.979Z,0
2018-06-30T02:58:07.954Z,0
2018-06-30T02:59:07.951Z,0
2018-06-30T03:00:08.190Z,0
2018-06-30T03:01:07.930Z,0
2018-06-30T03:02:07.905Z,0
2018-06-30T03:03:07.978Z,0
2018-06-30T03:04:07.878Z,0
2018-06-30T03:05:08.130Z,0
2018-06-30T03:06:08.120Z,0
2018-06-30T03:07:08.397Z,0
2018-06-30T03:08:07.581Z,0
2018-06-30T03:09:08.362Z,0
2018-06-30T03:10:08.353Z,0
2018-06-30T03:11:08.071Z,0
2018-06-30T03:12:08.317Z,0
2018-06-30T03:13:08.311Z,0
2018-06-30T03:14:08.055Z,0
2018-06-30T03:15:08.284Z,0
2018-06-30T03:16:07.752Z,0
2018-06-30T03:17:08.273Z,0
2018-06-30T03:18:07.465Z,0
2018-06-30T03:19:07.972Z,0
2018-06-30T03:20:07.705Z,5
2018-06-30T03:21:07.941Z,5
2018-06-30T03:22:08.200Z,5
2018-06-30T03:23:07.388Z,5
2018-06-30T03:24:08.166Z,5
2018-06-30T03:25:07.622Z,5
2018-06-30T03:26:07.621Z,5
2018-06-30T03:27:07.869Z,5
2018-06-30T03:28:07.593Z,5
2018-06-30T03:29:07.312Z,5
2018-06-30T03:30:07.578Z,5
2018-06-30T03:31:07.564Z,5
2018-06-30T03:32:07.033Z,5
2018-06-30T03:33:07.793Z,5
2018-06-30T03:34:07.808Z,5
2018-06-30T03:35:07.183Z,5
2018-06-30T03:36:06.988Z,10
2018-06-30T03:37:07.794Z,10
2018-06-30T03:38:08.029Z,10
2018-06-30T03:39:07.459Z,10
2018-06-30T03:40:07.985Z,10
2018-06-30T03:41:07.445Z,10
2018-06-30T03:42:07.691Z,10
2018-06-30T03:43:07.680Z,10
2018-06-30T03:44:07.965Z,10
2018-06-30T03:45:07.398Z,10
2018-06-30T03:46:07.724Z,10
2018-06-30T03:47:07.636Z,10
2018-06-30T03:48:07.356Z,15
2018-06-30T03:49:07.351Z,15
2018-06-30T03:50:07.862Z,15
2018-06-30T03:51:07.058Z,15
2018-06-30T03:52:07.577Z,15
2018-06-30T03:53:07.042Z,15
2018-06-30T03:54:06.770Z,15
2018-06-30T03:55:07.556Z,15
2018-06-30T03:56:06.736Z,20
2018-06-30T03:57:07.257Z,20
2018-06-30T03:58:07.284Z,20
2018-06-30T03:59:07.522Z,20
2018-06-30T04:00:06.691Z,20
2018-06-30T04:01:07.473Z,20
2018-06-30T04:02:06.930Z,25
2018-06-30T04:03:07.193Z,25
2018-06-30T04:04:07.481Z,25
2018-06-30T04:05:07.176Z,25
2018-06-30T04:06:07.407Z,25
2018-06-30T04:07:07.402Z,25
2018-06-30T04:08:07.395Z,25
2018-06-30T04:09:07.128Z,30
2018-06-30T04:10:07.102Z,30
2018-06-30T04:11:07.098Z,30
2018-06-30T04:12:07.081Z,30
2018-06-30T04:13:06.810Z,30
2018-06-30T04:14:07.057Z,35
2018-06-30T04:15:06.774Z,35
2018-06-30T04:16:07.036Z,35
2018-06-30T04:17:06.500Z,35
2018-06-30T04:18:06.748Z,35
2018-06-30T04:19:06.744Z,35
2018-06-30T04:20:06.990Z,35
2018-06-30T04:21:07.241Z,35
2018-06-30T04:22:07.465Z,35
2018-06-30T04:23:07.223Z,40
2018-06-30T04:24:07.234Z,40
2018-06-30T04:25:07.214Z,40
2018-06-30T04:26:06.925Z,40
2018-06-30T04:27:06.385Z,40
2018-06-30T04:28:06.897Z,40
2018-06-30T04:29:06.365Z,40
2018-06-30T04:30:06.880Z,40
2018-06-30T04:31:07.390Z,40
2018-06-30T04:32:07.380Z,40
2018-06-30T04:33:06.848Z,40
2018-06-30T04:34:06.831Z,40
2018-06-30T04:35:06.826Z,40
2018-06-30T04:36:06.546Z,40
2018-06-30T04:37:06.803Z,40
2018-06-30T04:38:06.792Z,40
2018-06-30T04:39:06.779Z,40
2018-06-30T04:40:07.301Z,40
2018-06-30T04:41:06.757Z,40
2018-06-30T04:42:06.753Z,40
2018-06-30T04:43:07.001Z,40
2018-06-30T04:44:06.726Z,40
2018-06-30T04:45:07.052Z,40
2018-06-30T04:46:06.483Z,40
2018-06-30T04:47:06.693Z,40
2018-06-30T04:48:06.944Z,40
2018-06-30T04:49:06.419Z,40
2018-06-30T04:50:06.926Z,40
2018-06-30T04:51:06.742Z,40
2018-06-30T04:52:06.646Z,40
2018-06-30T04:53:06.626Z,40
2018-06-30T04:54:06.089Z,40
2018-06-30T04:55:06.613Z,40
2018-06-30T04:56:06.593Z,40
2018-06-30T04:57:06.843Z,40
2018-06-30T04:58:06.567Z,40
2018-06-30T04:59:06.567Z,40
2018-06-30T05:00:06.827Z,40
2018-06-30T05:01:06.540Z,45
2018-06-30T05:02:06.530Z,45
2018-06-30T05:03:06.000Z,45
2018-06-30T05:04:06.779Z,45
2018-06-30T05:05:06.760Z,45
2018-06-30T05:06:06.235Z,45
2018-06-30T05:07:06.209Z,45
2018-06-30T05:08:06.216Z,45
2018-06-30T05:09:06.446Z,45
2018-06-30T05:10:06.758Z,45
2018-06-30T05:11:06.972Z,45
2018-06-30T05:12:06.432Z,45
2018-06-30T05:13:06.809Z,45
2018-06-30T05:14:06.672Z,45
2018-06-30T05:15:05.859Z,45
2018-06-30T05:16:06.433Z,45
2018-06-30T05:17:06.365Z,45
2018-06-30T05:18:06.374Z,45
2018-06-30T05:19:06.623Z,50
2018-06-30T05:20:06.868Z,50
2018-06-30T05:21:06.323Z,50
2018-06-30T05:22:06.348Z,50
2018-06-30T05:23:06.363Z,50
2018-06-30T05:24:06.039Z,50
2018-06-30T05:25:06.587Z,50
2018-06-30T05:26:07.228Z,50
2018-06-30T05:27:06.524Z,50
2018-06-30T05:28:06.799Z,50
2018-06-30T05:29:05.982Z,50
2018-06-30T05:30:06.811Z,50
2018-06-30T05:31:06.493Z,50
2018-06-30T05:32:06.222Z,50
2018-06-30T05:33:05.945Z,50
2018-06-30T05:34:06.195Z,50
2018-06-30T05:35:06.661Z,50
2018-06-30T05:36:06.463Z,55
2018-06-30T05:37:06.705Z,55
2018-06-30T05:38:06.679Z,55
2018-06-30T05:39:06.147Z,55
2018-06-30T05:40:05.864Z,55
2018-06-30T05:41:05.851Z,55
2018-06-30T05:42:05.843Z,55
2018-06-30T05:43:06.382Z,55
2018-06-30T05:44:06.092Z,55
2018-06-30T05:45:06.083Z,55
2018-06-30T05:46:06.598Z,55
2018-06-30T05:47:06.602Z,55
2018-06-30T05:48:05.783Z,55
2018-06-30T05:49:06.562Z,55
2018-06-30T05:50:06.025Z,55
2018-06-30T05:51:06.280Z,55
2018-06-30T05:52:05.999Z,55
2018-06-30T05:53:05.733Z,60
2018-06-30T05:54:06.243Z,55
2018-06-30T05:55:05.982Z,60
2018-06-30T05:56:05.695Z,60
2018-06-30T05:57:06.266Z,60
2018-06-30T05:58:05.945Z,60
2018-06-30T05:59:05.667Z,60
2018-06-30T06:00:05.929Z,60
2018-06-30T06:01:06.181Z,60
2018-06-30T06:02:05.909Z,60
2018-06-30T06:03:06.159Z,60
2018-06-30T06:04:05.354Z,60
2018-06-30T06:05:05.865Z,55
2018-06-30T06:06:06.131Z,60
2018-06-30T06:07:05.852Z,55
2018-06-30T06:08:05.850Z,55
2018-06-30T06:09:06.094Z,55
2018-06-30T06:10:06.064Z,60
2018-06-30T06:11:05.805Z,60
2018-06-30T06:12:06.074Z,60
2018-06-30T06:13:05.792Z,60
2018-06-30T06:14:05.779Z,60
2018-06-30T06:15:06.381Z,60
2018-06-30T06:16:05.230Z,60
2018-06-30T06:17:06.022Z,65
2018-06-30T06:18:06.014Z,225
2018-06-30T06:19:05.998Z,510
2018-06-30T06:20:05.595Z,210
2018-06-30T06:21:06.070Z,90
2018-06-30T06:22:05.971Z,410
2018-06-30T06:23:05.433Z,745
2018-06-30T06:24:05.423Z,845
2018-06-30T06:25:05.953Z,850
2018-06-30T06:26:06.215Z,600
2018-06-30T06:27:05.659Z,185
2018-06-30T06:28:06.191Z,70
2018-06-30T06:29:05.389Z,65
2018-06-30T06:30:05.369Z,65
2018-06-30T06:31:05.626Z,65
2018-06-30T06:32:06.147Z,65
2018-06-30T06:33:05.884Z,65
2018-06-30T06:34:05.609Z,65
2018-06-30T06:35:05.602Z,65
2018-06-30T06:36:05.318Z,65
2018-06-30T06:37:05.833Z,65
2018-06-30T06:38:05.565Z,65
2018-06-30T06:39:05.842Z,65
2018-06-30T06:40:05.545Z,65
2018-06-30T06:41:05.010Z,65
2018-06-30T06:42:05.808Z,65
2018-06-30T06:43:05.255Z,70
2018-06-30T06:44:06.055Z,70
2018-06-30T06:45:05.503Z,70
2018-06-30T06:46:05.487Z,70
2018-06-30T06:47:05.218Z,70
2018-06-30T06:48:05.744Z,75
2018-06-30T06:49:05.734Z,330
2018-06-30T06:50:05.456Z,865
2018-06-30T06:51:05.667Z,1015
2018-06-30T06:52:05.450Z,1000
2018-06-30T06:53:05.443Z,940
2018-06-30T06:54:05.415Z,905
2018-06-30T06:55:05.153Z,860
2018-06-30T06:56:05.410Z,635
2018-06-30T06:57:05.935Z,340
2018-06-30T06:58:05.657Z,115
2018-06-30T06:59:05.119Z,85
2018-06-30T07:00:05.914Z,85
2018-06-30T07:01:05.390Z,85
2018-06-30T07:02:05.641Z,85
2018-06-30T07:03:05.699Z,80
2018-06-30T07:04:05.623Z,80
2018-06-30T07:05:05.371Z,85
2018-06-30T07:06:05.330Z,85
2018-06-30T07:07:05.080Z,85
2018-06-30T07:08:05.325Z,85
2018-06-30T07:09:05.329Z,85
2018-06-30T07:10:05.043Z,85
2018-06-30T07:11:04.780Z,90
2018-06-30T07:12:05.560Z,90
2018-06-30T07:13:05.080Z,90
2018-06-30T07:14:05.553Z,210
2018-06-30T07:15:05.271Z,500
2018-06-30T07:16:05.793Z,810
2018-06-30T07:17:05.524Z,1075
2018-06-30T07:18:05.255Z,1150
2018-06-30T07:19:05.511Z,1175
2018-06-30T07:20:04.968Z,1230
2018-06-30T07:21:05.502Z,1300
2018-06-30T07:22:05.500Z,1385
2018-06-30T07:23:05.489Z,1430
2018-06-30T07:24:05.221Z,1395
2018-06-30T07:25:04.945Z,1320
2018-06-30T07:26:05.200Z,1220
2018-06-30T07:27:05.206Z,1215
2018-06-30T07:28:05.190Z,1335
2018-06-30T07:29:04.933Z,1420
2018-06-30T07:30:05.216Z,1450
2018-06-30T07:31:04.912Z,1450
2018-06-30T07:32:05.181Z,1440
2018-06-30T07:33:05.180Z,1460
2018-06-30T07:34:05.178Z,1495
2018-06-30T07:35:05.110Z,1500
2018-06-30T07:36:04.908Z,1510
2018-06-30T07:37:05.171Z,1470
2018-06-30T07:38:05.156Z,1410
2018-06-30T07:39:05.169Z,1370
2018-06-30T07:40:05.163Z,1400
2018-06-30T07:41:05.153Z,1415
2018-06-30T07:42:05.427Z,1440
2018-06-30T07:43:04.624Z,1475
2018-06-30T07:44:04.884Z,1500
2018-06-30T07:45:05.159Z,1505
2018-06-30T07:46:04.893Z,1495
2018-06-30T07:47:05.155Z,1475
2018-06-30T07:48:05.230Z,1480
2018-06-30T07:49:05.153Z,1520
2018-06-30T07:50:05.213Z,1545
2018-06-30T07:51:05.173Z,1570
2018-06-30T07:52:05.167Z,1570
2018-06-30T07:53:05.154Z,1535
2018-06-30T07:54:05.158Z,1550
2018-06-30T07:55:05.150Z,1580
2018-06-30T07:56:05.730Z,1570
2018-06-30T07:57:05.163Z,1575
2018-06-30T07:58:05.164Z,1590
2018-06-30T07:59:05.422Z,1570
2018-06-30T08:00:05.431Z,1590
2018-06-30T08:01:05.433Z,1615
2018-06-30T08:02:05.506Z,1610
2018-06-30T08:03:05.437Z,1590
2018-06-30T08:04:05.373Z,1610
2018-06-30T08:05:05.184Z,1600
2018-06-30T08:06:05.457Z,1625
2018-06-30T08:07:05.171Z,1675
2018-06-30T08:08:05.182Z,1695
2018-06-30T08:09:05.226Z,1665
2018-06-30T08:10:05.195Z,1615
2018-06-30T08:11:04.918Z,1605
2018-06-30T08:12:05.452Z,1640
2018-06-30T08:13:05.198Z,1665
2018-06-30T08:14:05.677Z,1675
2018-06-30T08:15:04.928Z,1680
2018-06-30T08:16:05.463Z,1700
2018-06-30T08:17:05.211Z,1705
2018-06-30T08:18:04.937Z,1690
2018-06-30T08:19:04.947Z,1695
2018-06-30T08:20:04.690Z,1690
2018-06-30T08:21:05.248Z,1720
2018-06-30T08:22:05.739Z,1755
2018-06-30T08:23:05.231Z,1775
2018-06-30T08:24:05.754Z,1765
2018-06-30T08:25:05.764Z,1755
2018-06-30T08:26:05.494Z,1770
2018-06-30T08:27:05.233Z,1790
2018-06-30T08:28:04.998Z,1815
2018-06-30T08:29:05.516Z,1785
2018-06-30T08:30:05.525Z,1730
2018-06-30T08:31:05.561Z,1240
2018-06-30T08:32:05.280Z,1275
2018-06-30T08:33:05.529Z,1585
2018-06-30T08:34:05.270Z,1470
2018-06-30T08:35:05.264Z,1405
2018-06-30T08:36:05.019Z,615
2018-06-30T08:37:05.552Z,710
2018-06-30T08:38:05.537Z,330
2018-06-30T08:39:05.018Z,785
2018-06-30T08:40:05.556Z,585
2018-06-30T08:41:05.029Z,915
2018-06-30T08:42:05.816Z,345
2018-06-30T08:43:05.343Z,110
2018-06-30T08:44:05.028Z,255
2018-06-30T08:45:05.300Z,130
2018-06-30T08:46:05.294Z,520
2018-06-30T08:47:05.834Z,105
2018-06-30T08:48:05.304Z,115
2018-06-30T08:49:05.300Z,125
2018-06-30T08:50:05.565Z,325
2018-06-30T08:51:05.355Z,225
2018-06-30T08:52:05.835Z,155
2018-06-30T08:53:05.308Z,335
2018-06-30T08:54:05.581Z,605
2018-06-30T08:55:05.043Z,115
2018-06-30T08:56:05.573Z,270
2018-06-30T08:57:05.175Z,950
2018-06-30T08:58:05.300Z,110
2018-06-30T08:59:05.585Z,1250
2018-06-30T09:00:05.042Z,425
2018-06-30T09:01:05.561Z,1965
2018-06-30T09:02:05.036Z,2030
2018-06-30T09:03:05.308Z,2050
2018-06-30T09:04:05.307Z,1995
2018-06-30T09:05:05.827Z,1930
2018-06-30T09:06:05.591Z,1845
2018-06-30T09:07:05.313Z,1800
2018-06-30T09:08:05.302Z,1845
2018-06-30T09:09:05.044Z,1905
2018-06-30T09:10:05.048Z,1925
2018-06-30T09:11:05.592Z,1935
2018-06-30T09:12:05.898Z,2000
2018-06-30T09:13:05.312Z,2065
2018-06-30T09:14:05.586Z,2115
2018-06-30T09:15:05.327Z,2155
2018-06-30T09:16:05.645Z,1860
2018-06-30T09:17:05.326Z,1890
2018-06-30T09:18:05.387Z,1530
2018-06-30T09:19:05.069Z,2110
2018-06-30T09:20:04.811Z,2100
2018-06-30T09:21:04.815Z,1965
2018-06-30T09:22:05.350Z,1535
2018-06-30T09:23:05.359Z,1095
2018-06-30T09:24:05.688Z,2035
2018-06-30T09:25:05.102Z,1860
2018-06-30T09:26:05.102Z,975
2018-06-30T09:27:05.092Z,915
2018-06-30T09:28:05.673Z,470
2018-06-30T09:29:05.636Z,730
2018-06-30T09:30:05.914Z,375
2018-06-30T09:31:05.400Z,470
2018-06-30T09:32:05.390Z,715
2018-06-30T09:33:05.382Z,1765
2018-06-30T09:34:05.647Z,2060
2018-06-30T09:35:05.587Z,205
2018-06-30T09:36:05.649Z,1610
2018-06-30T09:37:05.651Z,1820
2018-06-30T09:38:06.159Z,2020
2018-06-30T09:39:05.394Z,2025
2018-06-30T09:40:05.132Z,2060
2018-06-30T09:41:05.129Z,2010
2018-06-30T09:42:05.187Z,1920
2018-06-30T09:43:05.416Z,1695
2018-06-30T09:44:04.881Z,1705
2018-06-30T09:45:05.153Z,2060
2018-06-30T09:46:05.460Z,1180
2018-06-30T09:47:05.160Z,555
2018-06-30T09:48:05.960Z,515
2018-06-30T09:49:05.426Z,570
2018-06-30T09:50:05.435Z,1700
2018-06-30T09:51:05.672Z,525
2018-06-30T09:52:05.985Z,355
2018-06-30T09:53:05.500Z,455
2018-06-30T09:54:05.882Z,290
2018-06-30T09:55:06.210Z,300
2018-06-30T09:56:05.440Z,420
2018-06-30T09:57:05.205Z,400
2018-06-30T09:58:05.649Z,145
2018-06-30T09:59:05.729Z,200
2018-06-30T10:00:05.439Z,230
2018-06-30T10:01:05.440Z,210
2018-06-30T10:02:04.921Z,275
2018-06-30T10:03:05.451Z,110
2018-06-30T10:04:05.458Z,135
2018-06-30T10:05:05.445Z,435
2018-06-30T10:06:05.443Z,595
2018-06-30T10:07:05.793Z,140
2018-06-30T10:08:05.713Z,520
2018-06-30T10:09:06.075Z,570
2018-06-30T10:10:05.431Z,1220
2018-06-30T10:11:05.440Z,275
2018-06-30T10:12:05.692Z,110
2018-06-30T10:13:05.962Z,250
2018-06-30T10:14:05.430Z,220
2018-06-30T10:15:05.428Z,240
2018-06-30T10:16:05.168Z,1110
2018-06-30T10:17:05.166Z,735
2018-06-30T10:18:05.697Z,1575
2018-06-30T10:19:05.469Z,1110
2018-06-30T10:20:05.157Z,865
2018-06-30T10:21:06.310Z,215
2018-06-30T10:22:05.423Z,470
2018-06-30T10:23:05.415Z,1535
2018-06-30T10:24:05.684Z,2105
2018-06-30T10:25:05.151Z,435
2018-06-30T10:26:05.456Z,1160
2018-06-30T10:27:05.679Z,1190
2018-06-30T10:28:05.688Z,1120
2018-06-30T10:29:05.973Z,805
2018-06-30T10:30:05.440Z,2490
2018-06-30T10:31:05.420Z,2555
2018-06-30T10:32:05.147Z,2495
2018-06-30T10:33:05.679Z,1705
2018-06-30T10:34:05.150Z,2395
2018-06-30T10:35:05.440Z,2335
2018-06-30T10:36:05.689Z,2290
2018-06-30T10:37:05.433Z,2270
2018-06-30T10:38:05.706Z,2230
2018-06-30T10:39:05.422Z,2155
2018-06-30T10:40:05.177Z,2165
2018-06-30T10:41:05.440Z,2210
2018-06-30T10:42:05.446Z,2255
2018-06-30T10:43:05.184Z,2305
2018-06-30T10:44:05.455Z,2320
2018-06-30T10:45:05.460Z,2330
2018-06-30T10:46:05.731Z,2310
2018-06-30T10:47:05.739Z,2300
2018-06-30T10:48:05.466Z,2305
2018-06-30T10:49:05.747Z,2325
2018-06-30T10:50:05.751Z,2300
2018-06-30T10:51:05.501Z,2255
2018-06-30T10:52:05.500Z,2255
2018-06-30T10:53:05.770Z,2225
2018-06-30T10:54:05.782Z,2240
2018-06-30T10:55:05.205Z,2260
2018-06-30T10:56:05.274Z,2265
2018-06-30T10:57:06.066Z,2315
2018-06-30T10:58:05.821Z,2375
2018-06-30T10:59:05.809Z,2405
2018-06-30T11:00:05.903Z,2395
2018-06-30T11:01:05.314Z,2355
2018-06-30T11:02:06.114Z,2355
2018-06-30T11:03:05.313Z,2365
2018-06-30T11:04:05.738Z,2355
2018-06-30T11:05:05.654Z,2305
2018-06-30T11:06:06.483Z,2260
2018-06-30T11:07:05.350Z,2225
2018-06-30T11:08:05.351Z,2170
2018-06-30T11:09:05.096Z,2150
2018-06-30T11:10:05.642Z,2190
2018-06-30T11:11:05.994Z,2255
2018-06-30T11:12:05.919Z,2300
2018-06-30T11:13:05.662Z,2310
2018-06-30T11:14:05.931Z,2330
2018-06-30T11:15:05.137Z,2365
2018-06-30T11:16:05.678Z,2390
2018-06-30T11:17:05.684Z,2385
2018-06-30T11:18:05.969Z,2320
2018-06-30T11:19:05.169Z,2280
2018-06-30T11:20:05.786Z,2235
2018-06-30T11:21:05.979Z,2175
2018-06-30T11:22:05.726Z,2150
2018-06-30T11:23:06.256Z,2195
2018-06-30T11:24:05.476Z,2235
2018-06-30T11:25:05.765Z,2300
2018-06-30T11:26:05.232Z,2350
2018-06-30T11:27:05.770Z,2360
2018-06-30T11:28:05.524Z,2345
2018-06-30T11:29:05.785Z,2255
2018-06-30T11:30:05.540Z,2175
2018-06-30T11:31:05.559Z,2185
2018-06-30T11:32:05.547Z,2140
2018-06-30T11:33:05.871Z,2150
2018-06-30T11:34:06.129Z,2235
2018-06-30T11:35:06.062Z,2240
2018-06-30T11:36:05.584Z,2110
2018-06-30T11:37:05.860Z,2155
2018-06-30T11:38:05.872Z,2255
2018-06-30T11:39:06.136Z,2325
2018-06-30T11:40:05.612Z,2375
2018-06-30T11:41:06.091Z,2400
2018-06-30T11:42:06.165Z,2340
2018-06-30T11:43:06.182Z,2250
2018-06-30T11:44:06.187Z,2195
2018-06-30T11:45:05.930Z,2180
2018-06-30T11:46:05.936Z,2190
2018-06-30T11:47:06.213Z,2275
2018-06-30T11:48:05.959Z,2330
2018-06-30T11:49:06.224Z,2360
2018-06-30T11:50:05.972Z,2370
2018-06-30T11:51:05.852Z,2370
2018-06-30T11:52:05.733Z,2380
2018-06-30T11:53:06.009Z,2340
2018-06-30T11:54:06.536Z,2270
2018-06-30T11:55:06.278Z,2160
2018-06-30T11:56:06.291Z,2100
2018-06-30T11:57:06.296Z,2140
2018-06-30T11:58:06.037Z,2185
2018-06-30T11:59:06.051Z,2175
2018-06-30T12:00:06.067Z,2165
2018-06-30T12:01:05.810Z,2125
2018-06-30T12:02:06.526Z,2095
2018-06-30T12:03:06.436Z,2135
2018-06-30T12:04:06.414Z,2210
2018-06-30T12:05:06.121Z,2205
2018-06-30T12:06:05.857Z,2190
2018-06-30T12:07:06.395Z,2170
2018-06-30T12:08:05.865Z,2110
2018-06-30T12:09:06.146Z,2030
2018-06-30T12:10:06.159Z,1985
2018-06-30T12:11:06.421Z,2100
2018-06-30T12:12:06.727Z,2185
2018-06-30T12:13:05.638Z,2230
2018-06-30T12:14:06.181Z,2275
2018-06-30T12:15:05.930Z,2220
2018-06-30T12:16:06.461Z,2120
2018-06-30T12:17:06.212Z,2140
2018-06-30T12:18:05.957Z,2135
2018-06-30T12:19:06.491Z,2160
2018-06-30T12:20:06.244Z,2230
2018-06-30T12:21:06.266Z,2310
2018-06-30T12:22:05.998Z,2360
2018-06-30T12:23:06.820Z,2355
2018-06-30T12:24:06.265Z,2320
2018-06-30T12:25:06.559Z,2285
2018-06-30T12:26:06.287Z,2280
2018-06-30T12:27:06.574Z,2235
2018-06-30T12:28:05.784Z,2150
2018-06-30T12:29:06.842Z,2090
2018-06-30T12:30:06.857Z,2125
2018-06-30T12:31:06.869Z,2190
2018-06-30T12:32:07.326Z,2275
2018-06-30T12:33:06.617Z,2350
2018-06-30T12:34:06.365Z,2345
2018-06-30T12:35:06.643Z,2290
2018-06-30T12:36:06.121Z,2140
2018-06-30T12:37:06.398Z,2065
2018-06-30T12:38:06.935Z,2065
2018-06-30T12:39:06.741Z,2085
2018-06-30T12:40:06.422Z,2130
2018-06-30T12:41:06.429Z,2140
2018-06-30T12:42:06.442Z,2115
2018-06-30T12:43:06.184Z,2085
2018-06-30T12:44:06.189Z,2035
2018-06-30T12:45:07.573Z,1970
2018-06-30T12:46:06.743Z,1910
2018-06-30T12:47:06.494Z,1855
2018-06-30T12:48:05.957Z,1875
2018-06-30T12:49:06.236Z,1940
2018-06-30T12:50:06.242Z,2020
2018-06-30T12:51:06.524Z,2135
2018-06-30T12:52:06.530Z,2160
2018-06-30T12:53:06.542Z,2120
2018-06-30T12:54:06.627Z,2060
2018-06-30T12:55:06.340Z,2050
2018-06-30T12:56:06.569Z,2065
2018-06-30T12:57:06.856Z,2080
2018-06-30T12:58:06.049Z,2075
2018-06-30T12:59:06.338Z,2050
2018-06-30T13:00:06.880Z,2085
2018-06-30T13:01:06.867Z,2110
2018-06-30T13:02:06.620Z,2110
2018-06-30T13:03:06.900Z,2060
2018-06-30T13:04:06.644Z,2010
2018-06-30T13:05:06.682Z,2005
2018-06-30T13:06:06.408Z,2055
2018-06-30T13:07:06.410Z,2090
2018-06-30T13:08:06.685Z,2110
2018-06-30T13:09:07.165Z,2130
2018-06-30T13:10:06.700Z,2165
2018-06-30T13:11:06.183Z,2185
2018-06-30T13:12:06.986Z,2155
2018-06-30T13:13:06.981Z,2115
2018-06-30T13:14:06.735Z,2080
2018-06-30T13:15:06.478Z,2060
2018-06-30T13:16:07.021Z,2065
2018-06-30T13:17:06.766Z,2060
2018-06-30T13:18:06.504Z,2005
2018-06-30T13:19:07.043Z,2000
2018-06-30T13:20:06.522Z,2080
2018-06-30T13:21:06.804Z,2105
2018-06-30T13:22:06.806Z,2105
2018-06-30T13:23:06.637Z,2120
2018-06-30T13:24:07.094Z,2135
2018-06-30T13:25:07.101Z,2165
2018-06-30T13:26:07.105Z,2205
2018-06-30T13:27:06.860Z,2170
2018-06-30T13:28:07.124Z,2080
2018-06-30T13:29:06.877Z,2025
2018-06-30T13:30:06.927Z,1975
2018-06-30T13:31:06.921Z,1980
2018-06-30T13:32:07.440Z,2055
2018-06-30T13:33:06.689Z,2085
2018-06-30T13:34:06.663Z,2105
2018-06-30T13:35:07.345Z,2130
2018-06-30T13:36:07.224Z,2140
2018-06-30T13:37:06.949Z,2085
2018-06-30T13:38:06.693Z,2040
2018-06-30T13:39:06.974Z,2000
2018-06-30T13:40:07.244Z,1995
2018-06-30T13:41:07.256Z,2030
2018-06-30T13:42:07.532Z,2055
2018-06-30T13:43:07.370Z,1965
2018-06-30T13:44:07.020Z,1775
2018-06-30T13:45:07.303Z,1505
2018-06-30T13:46:07.030Z,1390
2018-06-30T13:47:07.367Z,1560
2018-06-30T13:48:06.790Z,1820
2018-06-30T13:49:07.062Z,1985
2018-06-30T13:50:07.392Z,1995
2018-06-30T13:51:07.372Z,1890
2018-06-30T13:52:07.352Z,1840
2018-06-30T13:53:07.101Z,1850
2018-06-30T13:54:07.370Z,1915
2018-06-30T13:55:07.381Z,1940
2018-06-30T13:56:07.383Z,1910